CPX655 Details

Departure: Key West International Airport (KEYW)
Arrival: Miami International Airport (KMIA) at N/A
Route: CARNU DVALL DVALL3
Notes:


Current Weather Information
KEYW 251053Z 23008KT 10SM FEW080 29/25 A2992 RMK AO2 SLP131 T02890250
KMIA 251053Z 00000KT 10SM FEW025 SCT250 27/24 A2991 RMK AO2 SLP129 CB DSNT SW T02670244